createdAt,value
2022-10-25T00:02:21.488Z,0.10
2022-10-25T00:05:07.936Z,0.10
2022-10-25T00:07:53.671Z,0.10
2022-10-25T00:10:39.201Z,0.10
2022-10-25T00:13:24.799Z,0.00
2022-10-25T00:16:18.165Z,0.10
2022-10-25T00:19:05.130Z,1.45
2022-10-25T00:21:50.835Z,0.10
2022-10-25T00:24:36.402Z,0.45
2022-10-25T00:27:21.863Z,0.88
2022-10-25T00:30:08.167Z,0.40
2022-10-25T00:32:54.507Z,0.80
2022-10-25T00:35:39.936Z,0.10
2022-10-25T00:38:25.361Z,0.20
2022-10-25T00:41:11.906Z,0.52
2022-10-25T00:44:35.671Z,0.47
2022-10-25T00:47:21.373Z,1.40
2022-10-25T00:50:32.226Z,0.10
2022-10-25T00:53:23.071Z,1.27
2022-10-25T00:56:17.137Z,1.73
2022-10-25T00:59:06.938Z,5.00
2022-10-25T01:01:55.068Z,0.10
2022-10-25T01:04:41.227Z,0.10
2022-10-25T01:07:26.691Z,0.40
2022-10-25T01:10:12.723Z,0.82
2022-10-25T01:13:00.117Z,1.95
2022-10-25T01:16:14.346Z,0.88
2022-10-25T01:19:30.636Z,0.10
2022-10-25T01:22:34.922Z,0.10
2022-10-25T01:25:55.677Z,1.58
2022-10-25T01:29:07.074Z,0.47
2022-10-25T01:32:06.420Z,0.10
2022-10-25T01:35:13.948Z,0.10
2022-10-25T01:38:19.191Z,0.30
2022-10-25T01:41:35.326Z,0.95
2022-10-25T01:47:35.517Z,0.10
2022-10-25T01:50:27.877Z,0.10
2022-10-25T01:53:14.624Z,1.60
2022-10-25T01:56:05.239Z,0.10
2022-10-25T01:59:04.366Z,0.40
2022-10-25T02:02:15.366Z,0.10
2022-10-25T02:05:27.288Z,0.10
2022-10-25T02:08:33.170Z,1.17
2022-10-25T02:11:28.443Z,1.10
2022-10-25T02:14:16.980Z,0.40
2022-10-25T02:17:13.936Z,0.10
2022-10-25T02:20:01.250Z,0.43
2022-10-25T02:22:48.331Z,0.10
2022-10-25T02:25:37.055Z,1.08
2022-10-25T02:28:26.228Z,1.73
2022-10-25T02:31:16.806Z,1.85
2022-10-25T02:34:02.649Z,2.70
2022-10-25T02:36:49.678Z,0.40
2022-10-25T02:39:35.722Z,0.20
2022-10-25T02:42:21.497Z,0.10
2022-10-25T02:45:07.843Z,0.30
2022-10-25T02:47:53.848Z,4.68
2022-10-25T02:50:39.508Z,3.50
2022-10-25T02:53:25.278Z,1.10
2022-10-25T02:56:15.551Z,0.57
2022-10-25T02:59:00.843Z,4.30
2022-10-25T03:01:46.183Z,2.33
2022-10-25T03:04:31.662Z,5.03
2022-10-25T03:07:17.204Z,0.75
2022-10-25T03:10:02.799Z,1.00
2022-10-25T03:12:49.190Z,0.10
2022-10-25T03:15:35.016Z,2.65
2022-10-25T03:18:20.642Z,1.05
2022-10-25T03:21:07.721Z,0.98
2022-10-25T03:23:53.468Z,0.17
2022-10-25T03:26:39.161Z,4.30
2022-10-25T03:29:24.783Z,0.90
2022-10-25T03:32:10.445Z,3.13
2022-10-25T03:34:56.203Z,1.85
2022-10-25T03:37:41.993Z,3.13
2022-10-25T03:40:27.426Z,2.67
2022-10-25T03:43:13.105Z,2.92
2022-10-25T03:45:58.920Z,3.90
2022-10-25T03:48:44.467Z,2.38
2022-10-25T03:51:30.040Z,2.63
2022-10-25T03:54:15.600Z,8.63
2022-10-25T03:57:01.850Z,0.15
2022-10-25T03:59:47.368Z,1.80
2022-10-25T04:02:33.015Z,0.52
2022-10-25T04:05:18.392Z,3.63
2022-10-25T04:08:04.097Z,3.42
2022-10-25T04:10:49.959Z,0.68
2022-10-25T04:13:35.537Z,1.95
2022-10-25T04:16:21.177Z,0.30
2022-10-25T04:19:07.011Z,2.10
2022-10-25T04:21:52.570Z,1.20
2022-10-25T04:24:38.104Z,2.60
2022-10-25T04:27:23.619Z,0.10
2022-10-25T04:30:09.691Z,0.50
2022-10-25T04:32:57.623Z,0.10
2022-10-25T04:35:43.750Z,0.30
2022-10-25T04:38:29.526Z,0.45
2022-10-25T04:41:15.808Z,1.77
2022-10-25T04:44:01.389Z,0.70
2022-10-25T04:46:48.813Z,0.55
2022-10-25T04:49:34.805Z,0.95
2022-10-25T04:52:20.511Z,0.82
2022-10-25T04:55:06.068Z,1.10
2022-10-25T04:57:51.923Z,0.10
2022-10-25T05:00:37.717Z,2.47
2022-10-25T05:03:23.188Z,2.03
2022-10-25T05:06:15.000Z,1.38
2022-10-25T05:09:01.137Z,0.10
2022-10-25T05:11:46.571Z,0.40
2022-10-25T05:14:33.393Z,1.30
2022-10-25T05:17:18.999Z,1.10
2022-10-25T05:20:05.240Z,0.80
2022-10-25T05:22:50.925Z,0.60
2022-10-25T05:25:36.565Z,0.10
2022-10-25T05:28:22.330Z,0.32
2022-10-25T05:34:01.005Z,0.20
2022-10-25T05:36:46.914Z,0.38
2022-10-25T05:39:32.613Z,0.52
2022-10-25T05:42:18.240Z,0.63
2022-10-25T05:45:03.887Z,0.32
2022-10-25T05:47:50.057Z,1.77
2022-10-25T05:50:35.718Z,2.17
2022-10-25T05:53:21.079Z,0.28
2022-10-25T05:56:06.962Z,1.10
2022-10-25T05:58:52.952Z,1.00
2022-10-25T06:01:44.378Z,4.90
2022-10-25T06:04:30.203Z,0.63
2022-10-25T06:07:15.994Z,1.92
2022-10-25T06:10:01.947Z,1.42
2022-10-25T06:12:47.668Z,0.20
2022-10-25T06:15:33.310Z,0.28
2022-10-25T06:18:18.749Z,0.35
2022-10-25T06:21:06.473Z,0.20
2022-10-25T06:23:53.249Z,0.10
2022-10-25T06:26:39.102Z,1.75
2022-10-25T06:29:24.693Z,0.10
2022-10-25T06:32:10.374Z,1.23
2022-10-25T06:34:56.083Z,0.43
2022-10-25T06:37:41.931Z,0.30
2022-10-25T06:40:27.776Z,2.25
2022-10-25T06:43:13.188Z,3.10
2022-10-25T06:46:06.506Z,0.50
2022-10-25T06:48:54.537Z,1.65
2022-10-25T06:51:40.193Z,0.10
2022-10-25T06:54:26.772Z,0.60
2022-10-25T06:57:12.463Z,0.45
2022-10-25T06:59:58.030Z,0.20
2022-10-25T07:02:43.631Z,0.10
2022-10-25T07:05:29.194Z,1.38
2022-10-25T07:08:14.740Z,0.47
2022-10-25T07:11:00.622Z,0.40
2022-10-25T07:13:47.245Z,0.65
2022-10-25T07:16:32.983Z,2.38
2022-10-25T07:19:18.824Z,1.13
2022-10-25T07:22:04.216Z,0.47
2022-10-25T07:24:49.723Z,2.38
2022-10-25T07:27:35.443Z,2.17
2022-10-25T07:30:21.298Z,1.75
2022-10-25T07:33:06.942Z,0.30
2022-10-25T07:36:05.805Z,1.55
2022-10-25T07:38:51.718Z,0.22
2022-10-25T07:41:37.367Z,0.52
2022-10-25T07:44:25.086Z,1.38
2022-10-25T07:47:10.802Z,0.95
2022-10-25T07:49:57.856Z,0.63
2022-10-25T07:52:43.706Z,0.15
2022-10-25T07:55:29.214Z,2.90
2022-10-25T07:58:14.600Z,5.15
2022-10-25T08:01:02.118Z,6.40
2022-10-25T08:03:48.146Z,2.47
2022-10-25T08:06:36.267Z,0.82
2022-10-25T08:09:37.412Z,1.08
2022-10-25T08:12:23.940Z,2.92
2022-10-25T08:15:09.782Z,0.93
2022-10-25T08:18:00.010Z,0.10
2022-10-25T08:21:03.008Z,0.25
2022-10-25T08:23:49.983Z,1.65
2022-10-25T08:26:38.164Z,2.67
2022-10-25T08:29:23.563Z,0.70
2022-10-25T08:32:09.917Z,1.75
2022-10-25T08:34:55.293Z,2.85
2022-10-25T08:37:40.724Z,6.57
2022-10-25T08:40:45.020Z,2.22
2022-10-25T08:43:48.985Z,4.53
2022-10-25T08:46:46.519Z,1.23
2022-10-25T08:49:59.370Z,0.90
2022-10-25T08:52:53.644Z,7.72
2022-10-25T08:55:58.776Z,8.07
2022-10-25T08:58:55.382Z,2.08
2022-10-25T09:01:47.516Z,11.77
2022-10-25T09:04:33.774Z,7.95
2022-10-25T09:07:42.641Z,10.43
2022-10-25T09:10:46.862Z,10.20
2022-10-25T09:14:10.042Z,8.90
2022-10-25T09:17:21.796Z,9.35
2022-10-25T09:20:16.840Z,10.60
2022-10-25T09:23:19.187Z,2.10
2022-10-25T09:26:20.845Z,8.05
2022-10-25T09:29:30.708Z,2.33
2022-10-25T09:32:27.451Z,5.85
2022-10-25T09:35:17.784Z,2.88
2022-10-25T09:38:33.620Z,5.75
2022-10-25T09:41:35.460Z,5.85
2022-10-25T09:44:29.665Z,4.07
2022-10-25T09:47:39.482Z,8.63
2022-10-25T09:50:30.126Z,9.07
2022-10-25T09:53:21.692Z,5.32
2022-10-25T09:56:10.007Z,4.38
2022-10-25T09:58:55.586Z,3.53
2022-10-25T10:01:42.039Z,7.38
2022-10-25T10:04:35.871Z,2.70
2022-10-25T10:07:34.101Z,3.88
2022-10-25T10:10:24.218Z,1.85
2022-10-25T10:13:23.854Z,3.03
2022-10-25T10:16:15.713Z,4.07
2022-10-25T10:19:30.535Z,5.80
2022-10-25T10:22:17.456Z,0.68
2022-10-25T10:25:04.406Z,6.43
2022-10-25T10:27:53.430Z,1.40
2022-10-25T10:30:39.905Z,4.88
2022-10-25T10:33:33.046Z,2.00
2022-10-25T10:36:23.421Z,2.42
2022-10-25T10:39:23.494Z,2.63
2022-10-25T10:42:20.764Z,7.97
2022-10-25T10:45:09.190Z,8.52
2022-10-25T10:47:59.165Z,4.65
2022-10-25T10:50:49.895Z,6.30
2022-10-25T10:53:36.060Z,9.98
2022-10-25T10:56:25.711Z,2.97
2022-10-25T10:59:45.779Z,9.05
2022-10-25T11:02:41.015Z,3.08
2022-10-25T11:05:30.070Z,9.10
2022-10-25T11:08:20.317Z,7.57
2022-10-25T11:11:19.092Z,7.97
2022-10-25T11:14:15.749Z,5.03
2022-10-25T11:17:13.086Z,5.65
2022-10-25T11:20:05.155Z,9.52
2022-10-25T11:23:32.738Z,6.70
2022-10-25T11:26:50.440Z,10.43
2022-10-25T11:29:45.278Z,6.85
2022-10-25T11:33:08.646Z,7.82
2022-10-25T11:36:18.720Z,7.32
2022-10-25T11:39:31.198Z,8.10
2022-10-25T11:42:32.745Z,1.63
2022-10-25T11:45:41.807Z,5.43
2022-10-25T11:48:42.231Z,5.47
2022-10-25T11:51:33.545Z,3.72
2022-10-25T11:54:27.575Z,8.18
2022-10-25T11:57:21.864Z,2.65
2022-10-25T12:00:16.700Z,5.40
2022-10-25T12:03:34.861Z,5.60
2022-10-25T12:06:28.971Z,2.42
2022-10-25T12:09:45.213Z,3.63
2022-10-25T12:12:55.133Z,2.58
2022-10-25T12:15:49.410Z,2.40
2022-10-25T12:18:45.932Z,1.73
2022-10-25T12:21:41.493Z,2.28
2022-10-25T12:24:36.862Z,3.20
2022-10-25T12:27:24.565Z,3.38
2022-10-25T12:30:18.968Z,6.45
2022-10-25T12:33:31.169Z,6.15
2022-10-25T12:36:23.491Z,4.60
2022-10-25T12:39:23.433Z,2.10
2022-10-25T12:42:32.957Z,1.77
2022-10-25T12:45:41.330Z,4.05
2022-10-25T12:48:39.391Z,0.25
2022-10-25T12:51:28.548Z,1.17
2022-10-25T12:54:49.510Z,1.38
2022-10-25T12:57:48.335Z,2.10
2022-10-25T13:00:59.920Z,3.22
2022-10-25T13:04:21.170Z,0.20
2022-10-25T13:07:08.805Z,2.42
2022-10-25T13:10:06.546Z,0.63
2022-10-25T13:13:18.716Z,0.10
2022-10-25T13:16:05.950Z,2.10
2022-10-25T13:19:30.649Z,1.13
2022-10-25T13:22:39.789Z,0.55
2022-10-25T13:25:31.254Z,3.13
2022-10-25T13:28:16.975Z,1.23
2022-10-25T13:31:33.795Z,0.30
2022-10-25T13:34:19.534Z,3.08
2022-10-25T13:37:26.250Z,0.15
2022-10-25T13:40:21.185Z,0.10
2022-10-25T13:43:19.267Z,1.02
2022-10-25T13:46:05.083Z,0.10
2022-10-25T13:48:51.086Z,1.85
2022-10-25T13:51:41.065Z,0.22
2022-10-25T13:54:42.306Z,0.30
2022-10-25T13:57:47.372Z,0.50
2022-10-25T14:00:35.476Z,1.55
2022-10-25T14:03:21.330Z,1.58
2022-10-25T14:06:13.016Z,1.10
2022-10-25T14:09:33.628Z,0.13
2022-10-25T14:12:21.396Z,0.98
2022-10-25T14:15:34.954Z,2.40
2022-10-25T14:18:23.651Z,1.67
2022-10-25T14:21:12.415Z,0.20
2022-10-25T14:23:59.781Z,0.60
2022-10-25T14:26:59.772Z,1.40
2022-10-25T14:29:45.382Z,1.10
2022-10-25T14:36:08.672Z,0.50
2022-10-25T14:39:15.819Z,0.10
2022-10-25T14:42:03.337Z,2.05
2022-10-25T14:44:50.652Z,0.10
2022-10-25T14:47:36.566Z,1.08
2022-10-25T14:50:25.466Z,1.10
2022-10-25T14:53:16.745Z,1.17
2022-10-25T14:56:05.213Z,0.10
2022-10-25T14:58:51.550Z,0.77
2022-10-25T15:01:38.440Z,1.67
2022-10-25T15:04:34.134Z,2.13
2022-10-25T15:07:24.470Z,0.32
2022-10-25T15:10:28.829Z,0.10
2022-10-25T15:13:20.149Z,0.98
2022-10-25T15:16:30.785Z,0.10
2022-10-25T15:19:20.692Z,0.10
2022-10-25T15:22:10.253Z,0.50
2022-10-25T15:24:57.474Z,0.22
2022-10-25T15:27:43.686Z,0.85
2022-10-25T15:30:45.070Z,0.82
2022-10-25T15:33:32.371Z,0.95
2022-10-25T15:36:26.463Z,1.92
2022-10-25T15:39:29.657Z,0.20
2022-10-25T15:42:15.780Z,0.10
2022-10-25T15:45:04.481Z,0.10
2022-10-25T15:47:51.215Z,0.10
2022-10-25T15:50:40.354Z,0.10
2022-10-25T15:53:26.552Z,0.10
2022-10-25T15:56:20.794Z,0.10
2022-10-25T15:59:06.588Z,0.10
2022-10-25T16:01:55.235Z,0.10
2022-10-25T16:04:41.001Z,0.10
2022-10-25T16:07:26.454Z,0.10
2022-10-25T16:10:12.713Z,0.10
2022-10-25T16:13:03.789Z,0.10
2022-10-25T16:15:49.541Z,0.10
2022-10-25T16:18:35.343Z,0.10
2022-10-25T16:21:21.415Z,0.80
2022-10-25T16:24:07.159Z,0.25
2022-10-25T16:26:52.787Z,0.10
2022-10-25T16:29:39.582Z,0.10
2022-10-25T16:32:25.197Z,0.10
2022-10-25T16:35:11.691Z,0.10
2022-10-25T16:37:57.379Z,0.10
2022-10-25T16:40:42.857Z,0.10
2022-10-25T16:43:28.557Z,0.10
2022-10-25T16:46:14.254Z,0.10
2022-10-25T16:49:02.004Z,0.10
2022-10-25T16:51:49.911Z,0.10
2022-10-25T16:54:35.575Z,0.10
2022-10-25T16:57:20.899Z,0.10
2022-10-25T17:00:07.140Z,0.10
2022-10-25T17:02:53.352Z,0.10
2022-10-25T17:05:40.295Z,0.10
2022-10-25T17:08:26.114Z,0.10
2022-10-25T17:11:12.905Z,0.10
2022-10-25T17:13:58.694Z,0.10
2022-10-25T17:16:45.344Z,0.10
2022-10-25T17:19:31.027Z,0.10
2022-10-25T17:22:17.010Z,0.10
2022-10-25T17:25:03.132Z,0.10
2022-10-25T17:27:53.145Z,0.10
2022-10-25T17:30:42.372Z,0.95
2022-10-25T17:33:27.981Z,0.40
2022-10-25T17:36:18.711Z,0.10
2022-10-25T17:39:07.020Z,0.22
2022-10-25T17:41:52.544Z,0.20
2022-10-25T17:44:38.277Z,1.23
2022-10-25T17:47:23.555Z,0.20
2022-10-25T17:50:10.819Z,0.30
2022-10-25T17:52:56.550Z,0.08
2022-10-25T17:55:42.011Z,0.40
2022-10-25T17:58:28.129Z,0.73
2022-10-25T18:01:16.997Z,0.45
2022-10-25T18:04:03.152Z,2.25
2022-10-25T18:06:48.653Z,0.10
2022-10-25T18:09:33.973Z,0.13
2022-10-25T18:12:19.585Z,0.22
2022-10-25T18:15:06.729Z,0.55
2022-10-25T18:17:52.279Z,0.75
2022-10-25T18:20:40.591Z,1.20
2022-10-25T18:23:26.256Z,0.22
2022-10-25T18:26:13.570Z,0.45
2022-10-25T18:29:00.461Z,0.22
2022-10-25T18:31:46.270Z,1.23
2022-10-25T18:34:31.532Z,0.35
2022-10-25T18:37:17.414Z,1.00
2022-10-25T18:40:02.928Z,0.13
2022-10-25T18:42:48.973Z,0.60
2022-10-25T18:45:36.207Z,0.13
2022-10-25T18:48:21.533Z,0.30
2022-10-25T18:51:10.334Z,0.75
2022-10-25T18:53:57.799Z,1.33
2022-10-25T18:56:44.057Z,1.50
2022-10-25T18:59:29.684Z,0.10
2022-10-25T19:02:15.680Z,0.20
2022-10-25T19:05:01.656Z,0.25
2022-10-25T19:07:47.268Z,0.10
2022-10-25T19:10:35.216Z,1.95
2022-10-25T19:13:20.961Z,0.22
2022-10-25T19:23:42.640Z,1.00
2022-10-25T19:27:23.041Z,0.47
2022-10-25T19:35:24.638Z,0.30
2022-10-25T19:38:10.481Z,0.40
2022-10-25T19:40:59.787Z,0.35
2022-10-25T19:43:46.081Z,0.10
2022-10-25T19:46:31.753Z,1.02
2022-10-25T19:49:17.674Z,0.10
2022-10-25T19:52:03.245Z,0.60
2022-10-25T19:54:48.925Z,0.10
2022-10-25T19:57:35.151Z,0.10
2022-10-25T20:00:20.854Z,0.55
2022-10-25T20:03:06.657Z,1.17
2022-10-25T20:05:58.338Z,3.15
2022-10-25T20:08:44.215Z,0.57
2022-10-25T20:11:31.397Z,0.28
2022-10-25T20:14:16.828Z,0.22
2022-10-25T20:17:03.602Z,0.85
2022-10-25T20:19:49.224Z,0.10
2022-10-25T20:22:37.927Z,0.10
2022-10-25T20:25:23.565Z,0.10
2022-10-25T20:28:09.618Z,0.80
2022-10-25T20:31:03.389Z,0.20
2022-10-25T20:33:49.931Z,0.50
2022-10-25T20:36:35.534Z,0.10
2022-10-25T20:39:21.331Z,0.10
2022-10-25T20:42:06.825Z,0.57
2022-10-25T20:44:52.666Z,0.63
2022-10-25T20:47:40.958Z,0.25
2022-10-25T20:50:28.323Z,0.10
2022-10-25T20:53:13.950Z,1.17
2022-10-25T20:55:59.823Z,0.55
2022-10-25T20:58:46.315Z,0.10
2022-10-25T21:01:32.379Z,2.70
2022-10-25T21:04:25.858Z,1.13
2022-10-25T21:07:21.572Z,0.65
2022-10-25T21:10:07.634Z,0.17
2022-10-25T21:12:53.311Z,0.10
2022-10-25T21:15:38.969Z,1.00
2022-10-25T21:18:28.606Z,0.75
2022-10-25T21:21:19.505Z,3.60
2022-10-25T21:24:05.907Z,0.20
2022-10-25T21:26:51.742Z,0.40
2022-10-25T21:29:37.462Z,1.52
2022-10-25T21:32:23.071Z,0.13
2022-10-25T21:35:08.820Z,0.20
2022-10-25T21:37:54.583Z,0.90
2022-10-25T21:40:40.479Z,0.30
2022-10-25T21:43:26.210Z,1.48
2022-10-25T21:46:12.885Z,0.10
2022-10-25T21:48:58.646Z,1.45
2022-10-25T21:51:44.277Z,0.68
2022-10-25T21:54:29.882Z,0.43
2022-10-25T21:57:15.362Z,0.20
2022-10-25T22:00:01.074Z,1.17
2022-10-25T22:02:46.725Z,0.57
2022-10-25T22:05:32.351Z,1.05
2022-10-25T22:08:21.727Z,2.00
2022-10-25T22:11:11.207Z,0.43
2022-10-25T22:14:02.191Z,2.33
2022-10-25T22:16:47.653Z,0.98
2022-10-25T22:19:33.117Z,1.90
2022-10-25T22:22:19.145Z,0.10
2022-10-25T22:25:05.287Z,0.10
2022-10-25T22:27:50.780Z,0.10
2022-10-25T22:30:36.352Z,0.10
2022-10-25T22:33:22.167Z,0.10
2022-10-25T22:36:12.556Z,0.00
2022-10-25T22:38:58.889Z,0.85
2022-10-25T22:41:46.278Z,0.10
2022-10-25T22:44:32.109Z,1.73
2022-10-25T22:47:17.648Z,0.13
2022-10-25T22:50:03.390Z,0.10
2022-10-25T22:52:48.825Z,0.35
2022-10-25T22:55:34.429Z,1.17
2022-10-25T22:58:19.920Z,0.15
2022-10-25T23:01:11.578Z,0.10
2022-10-25T23:03:58.451Z,1.70
2022-10-25T23:06:44.399Z,2.53
2022-10-25T23:09:29.824Z,0.85
2022-10-25T23:12:15.237Z,1.58
2022-10-25T23:15:01.426Z,2.70
2022-10-25T23:17:46.873Z,1.67
2022-10-25T23:20:32.367Z,0.32
2022-10-25T23:23:18.354Z,0.10
2022-10-25T23:26:05.155Z,2.03
2022-10-25T23:28:51.231Z,2.47
2022-10-25T23:31:37.036Z,1.55
2022-10-25T23:37:12.857Z,1.25
2022-10-25T23:39:58.152Z,1.38
2022-10-25T23:45:32.207Z,0.10
2022-10-25T23:48:17.613Z,1.75
2022-10-25T23:51:08.552Z,1.98
2022-10-25T23:53:54.456Z,0.57
2022-10-25T23:56:40.149Z,0.10
2022-10-25T23:59:28.243Z,0.10
